Time;durP1;ratioP1;P1;durP2;ratioP2;P2;SDS_P1;SDS_P2;PMS_P1;PMS_P2;Temp;Humidity;BMP_temperature;BMP_pressure;BME280_temperature;BME280_humidity;BME280_pressure;Samples;Min_cycle;Max_cycle;Signal;HPM_P1;HPM_P2
2021/10/03 00:00:12;;;;;;;30.48;27.52;;;;;21.10;98726.00;;;;2094879;28;20289;-55
2021/10/03 00:01:13;;;;;;;33.45;29.85;;;;;21.10;98726.00;;;;2092759;28;20690;-55
2021/10/03 00:02:14;;;;;;;25.97;23.20;;;;;21.10;98707.00;;;;2091303;28;20216;-55
2021/10/03 00:03:17;;;;;;;26.30;23.60;;;;;21.10;98727.00;;;;2082646;28;20451;-53
2021/10/03 00:04:17;;;;;;;30.25;27.00;;;;;21.10;98715.00;;;;2082390;28;20478;-55
2021/10/03 00:05:18;;;;;;;28.80;25.63;;;;;21.10;98709.00;;;;2091656;28;20212;-55
2021/10/03 00:06:20;;;;;;;31.57;28.27;;;;;21.00;98715.00;;;;2091223;28;20270;-55
2021/10/03 00:07:21;;;;;;;30.58;27.20;;;;;21.00;98720.00;;;;2088462;28;20283;-53
2021/10/03 00:08:21;;;;;;;30.33;27.13;;;;;21.10;98727.00;;;;2090533;28;20224;-55
2021/10/03 00:09:21;;;;;;;25.97;23.20;;;;;21.10;98698.00;;;;2087282;28;20209;-53
2021/10/03 00:10:23;;;;;;;24.90;22.30;;;;;21.10;98724.00;;;;2091274;28;20315;-53
2021/10/03 00:11:24;;;;;;;25.00;22.55;;;;;21.10;98716.00;;;;2091478;28;20290;-54
2021/10/03 00:12:25;;;;;;;28.08;25.15;;;;;21.00;98716.00;;;;2090840;28;20221;-57
2021/10/03 00:13:25;;;;;;;26.37;23.67;;;;;21.10;98715.00;;;;2091138;28;20737;-56
2021/10/03 00:14:26;;;;;;;28.37;25.50;;;;;21.10;98717.00;;;;2089727;28;20205;-55
2021/10/03 00:15:26;;;;;;;28.50;25.50;;;;;21.00;98720.00;;;;2088644;28;20455;-54
2021/10/03 00:16:27;;;;;;;30.83;27.83;;;;;21.00;98720.00;;;;2090448;28;20223;-54
2021/10/03 00:17:28;;;;;;;25.60;23.10;;;;;21.10;98723.00;;;;2095689;28;20584;-55
2021/10/03 00:18:28;;;;;;;27.03;24.33;;;;;21.00;98722.00;;;;2091375;28;20216;-53
2021/10/03 00:19:28;;;;;;;30.50;27.33;;;;;21.10;98724.00;;;;2086327;28;20244;-55
2021/10/03 00:20:29;;;;;;;27.03;24.27;;;;;21.00;98717.00;;;;2091167;28;20274;-55
2021/10/03 00:21:29;;;;;;;30.07;26.93;;;;;21.10;98716.00;;;;2087339;28;20307;-54
2021/10/03 00:22:30;;;;;;;29.10;26.20;;;;;21.10;98726.00;;;;2088918;28;20219;-55
2021/10/03 00:23:32;;;;;;;24.53;22.13;;;;;21.10;98723.00;;;;2092505;28;20674;-55
2021/10/03 00:24:32;;;;;;;26.75;23.98;;;;;21.10;98727.00;;;;2090470;28;20236;-53
2021/10/03 00:25:33;;;;;;;29.90;26.87;;;;;21.00;98720.00;;;;2095119;28;20208;-54
2021/10/03 00:26:34;;;;;;;27.27;24.40;;;;;21.00;98717.00;;;;2091817;28;20235;-55
2021/10/03 00:27:35;;;;;;;27.33;24.20;;;;;21.00;98718.00;;;;2089869;28;20296;-54
2021/10/03 00:28:35;;;;;;;29.20;26.20;;;;;21.10;98712.00;;;;2086902;28;20224;-54
2021/10/03 00:29:35;;;;;;;29.53;26.43;;;;;21.10;98726.00;;;;2089465;28;20625;-55
2021/10/03 00:30:37;;;;;;;24.23;21.77;;;;;21.10;98733.00;;;;2090615;28;20634;-55
2021/10/03 00:31:37;;;;;;;28.00;25.05;;;;;21.00;98720.00;;;;2094202;28;20204;-54
2021/10/03 00:32:38;;;;;;;28.30;25.40;;;;;21.00;98731.00;;;;2092493;28;20316;-55
2021/10/03 00:33:38;;;;;;;28.07;25.10;;;;;21.10;98725.00;;;;2091033;28;20312;-55
2021/10/03 00:34:38;;;;;;;26.37;23.53;;;;;21.10;98732.00;;;;2089677;28;20209;-55
2021/10/03 00:35:39;;;;;;;20.93;18.90;;;;;21.00;98740.00;;;;2089035;28;20219;-55
2021/10/03 00:36:39;;;;;;;23.23;20.93;;;;;21.00;98741.00;;;;2088630;28;20213;-55
2021/10/03 00:37:40;;;;;;;23.87;21.37;;;;;21.10;98744.00;;;;2090267;28;20209;-54
2021/10/03 00:38:40;;;;;;;24.13;21.73;;;;;21.00;98740.00;;;;2088079;28;20701;-54
2021/10/03 00:39:40;;;;;;;24.33;21.73;;;;;21.10;98743.00;;;;2090980;28;20208;-53
2021/10/03 00:40:41;;;;;;;25.27;22.77;;;;;21.10;98749.00;;;;2090311;28;20572;-54
2021/10/03 00:41:43;;;;;;;22.17;19.87;;;;;21.10;98736.00;;;;2088502;28;20252;-55
2021/10/03 00:42:44;;;;;;;20.90;18.75;;;;;21.10;98747.00;;;;2086848;28;20216;-54
2021/10/03 00:43:44;;;;;;;21.17;19.07;;;;;21.00;98736.00;;;;2091217;28;20732;-55
2021/10/03 00:44:45;;;;;;;24.53;22.03;;;;;21.00;98733.00;;;;2091246;28;20519;-55
2021/10/03 00:45:45;;;;;;;22.23;20.00;;;;;21.10;98739.00;;;;2089616;28;20751;-54
2021/10/03 00:46:45;;;;;;;24.23;21.73;;;;;21.10;98738.00;;;;2088834;28;20236;-55
2021/10/03 00:47:46;;;;;;;24.43;22.10;;;;;21.10;98733.00;;;;2090882;28;20221;-55
2021/10/03 00:48:46;;;;;;;23.07;20.67;;;;;21.10;98738.00;;;;2090350;28;20220;-55
2021/10/03 00:49:46;;;;;;;23.73;21.40;;;;;21.10;98735.00;;;;2091134;28;20232;-55
2021/10/03 00:50:47;;;;;;;22.60;20.30;;;;;21.10;98735.00;;;;2090213;28;20220;-55
2021/10/03 00:51:47;;;;;;;22.80;20.50;;;;;21.10;98739.00;;;;2090675;28;20299;-55
2021/10/03 00:52:48;;;;;;;24.57;22.07;;;;;21.10;98729.00;;;;2090842;28;20224;-55
2021/10/03 00:53:48;;;;;;;21.90;19.70;;;;;21.10;98720.00;;;;2090495;28;20207;-55
2021/10/03 00:54:48;;;;;;;22.37;19.10;;;;;21.00;98728.00;;;;2086793;28;20220;-54
2021/10/03 00:55:49;;;;;;;20.93;18.80;;;;;21.00;98723.00;;;;2088820;28;20331;-55
2021/10/03 00:56:49;;;;;;;22.37;20.27;;;;;21.00;98726.00;;;;2091917;28;20305;-54
2021/10/03 00:57:50;;;;;;;23.83;21.33;;;;;21.00;98725.00;;;;2085860;28;20259;-54
2021/10/03 00:58:50;;;;;;;23.80;21.40;;;;;21.00;98726.00;;;;2092996;28;20232;-54
2021/10/03 00:59:51;;;;;;;22.97;20.60;;;;;21.00;98722.00;;;;2091042;28;20974;-55
2021/10/03 01:00:51;;;;;;;18.73;16.87;;;;;21.00;98721.00;;;;2093843;28;20642;-53
2021/10/03 01:01:51;;;;;;;23.17;20.77;;;;;21.00;98716.00;;;;2069690;28;20244;-55
2021/10/03 01:02:52;;;;;;;17.27;15.57;;;;;21.00;98724.00;;;;2083149;28;20299;-54
2021/10/03 01:03:52;;;;;;;19.50;17.50;;;;;21.00;98722.00;;;;2089037;28;20217;-55
2021/10/03 01:04:53;;;;;;;19.17;17.30;;;;;21.10;98716.00;;;;2086675;28;20312;-55
2021/10/03 01:05:53;;;;;;;20.03;18.03;;;;;21.00;98727.00;;;;2087069;28;20212;-55
2021/10/03 01:06:53;;;;;;;20.93;18.73;;;;;21.00;98718.00;;;;2087351;28;20216;-54
2021/10/03 01:07:54;;;;;;;20.60;18.40;;;;;21.00;98724.00;;;;2088457;28;20213;-53
2021/10/03 01:08:54;;;;;;;19.00;17.10;;;;;21.00;98727.00;;;;2090848;28;20216;-54
2021/10/03 01:09:54;;;;;;;19.97;18.00;;;;;21.00;98727.00;;;;2091120;28;20216;-53
2021/10/03 01:10:55;;;;;;;17.10;15.40;;;;;21.10;98727.00;;;;2086600;28;20347;-55
2021/10/03 01:11:55;;;;;;;20.93;18.73;;;;;21.00;98732.00;;;;2095198;28;20231;-55
2021/10/03 01:13:03;;;;;;;16.77;15.07;;;;;21.00;98731.00;;;;2089590;28;20212;-54
2021/10/03 01:14:03;;;;;;;17.65;15.85;;;;;21.10;98724.00;;;;2090674;28;20274;-57
2021/10/03 01:15:04;;;;;;;18.67;16.97;;;;;21.00;98715.00;;;;2094980;28;20911;-54
2021/10/03 01:16:07;;;;;;;17.90;16.20;;;;;21.00;98728.00;;;;2086890;28;20287;-55
2021/10/03 01:17:07;;;;;;;18.58;16.77;;;;;21.00;98725.00;;;;2088026;28;20601;-55
2021/10/03 01:18:08;;;;;;;16.07;14.47;;;;;21.00;98719.00;;;;2090527;28;20290;-55
2021/10/03 01:19:08;;;;;;;20.13;18.13;;;;;21.00;98713.00;;;;2094870;28;20220;-55
2021/10/03 01:20:09;;;;;;;16.50;14.80;;;;;21.00;98715.00;;;;2092067;28;20709;-54
2021/10/03 01:21:09;;;;;;;18.67;16.80;;;;;21.00;98724.00;;;;2092155;28;20209;-55
2021/10/03 01:22:10;;;;;;;18.33;16.33;;;;;21.00;98728.00;;;;2092525;28;20807;-55
2021/10/03 01:23:10;;;;;;;17.17;15.47;;;;;21.10;98717.00;;;;2092403;28;20213;-54
2021/10/03 01:24:11;;;;;;;18.93;17.13;;;;;21.00;98718.00;;;;2092486;28;20669;-54
2021/10/03 01:25:11;;;;;;;19.17;17.27;;;;;21.00;98732.00;;;;2091492;28;20299;-54
2021/10/03 01:26:11;;;;;;;16.17;14.63;;;;;21.00;98721.00;;;;2089732;28;20239;-55
2021/10/03 01:27:12;;;;;;;19.30;17.50;;;;;21.00;98722.00;;;;2092701;28;20263;-55
2021/10/03 01:28:13;;;;;;;17.90;16.20;;;;;21.00;98720.00;;;;2094718;28;20247;-54
2021/10/03 01:29:13;;;;;;;19.10;17.17;;;;;21.10;98725.00;;;;2088492;28;20255;-55
2021/10/03 01:30:15;;;;;;;15.50;14.10;;;;;21.00;98712.00;;;;2092801;28;20212;-54
2021/10/03 01:31:16;;;;;;;15.77;14.10;;;;;21.10;98721.00;;;;2096572;28;20215;-55
2021/10/03 01:32:17;;;;;;;15.37;13.87;;;;;21.00;98734.00;;;;2088801;28;20208;-55
2021/10/03 01:33:18;;;;;;;15.68;14.18;;;;;21.00;98717.00;;;;2092891;28;20294;-55
2021/10/03 01:34:18;;;;;;;17.73;15.90;;;;;21.00;98732.00;;;;2092863;28;20337;-55
2021/10/03 01:35:19;;;;;;;17.00;15.20;;;;;21.00;98738.00;;;;2092434;28;20303;-54
2021/10/03 01:36:20;;;;;;;15.80;14.15;;;;;21.00;98730.00;;;;2092590;28;20218;-55
2021/10/03 01:37:22;;;;;;;17.37;15.57;;;;;21.00;98720.00;;;;2093235;28;20201;-53
2021/10/03 01:38:22;;;;;;;17.33;15.60;;;;;21.00;98738.00;;;;2090027;28;20449;-55
2021/10/03 01:39:23;;;;;;;18.20;16.13;;;;;21.00;98725.00;;;;2089125;28;20201;-54
2021/10/03 01:40:23;;;;;;;16.83;15.17;;;;;21.00;98725.00;;;;2095729;28;20211;-54
2021/10/03 01:41:24;;;;;;;14.93;13.43;;;;;21.00;98709.00;;;;2088798;28;20243;-55
2021/10/03 01:42:24;;;;;;;14.37;12.97;;;;;21.00;98707.00;;;;2090465;28;20240;-55
2021/10/03 01:43:25;;;;;;;15.93;14.33;;;;;21.00;98714.00;;;;2097106;28;20208;-54
2021/10/03 01:44:25;;;;;;;15.93;14.40;;;;;21.10;98720.00;;;;2094493;28;20302;-55
2021/10/03 01:45:25;;;;;;;17.07;15.33;;;;;21.00;98702.00;;;;2091758;28;20684;-54
2021/10/03 01:46:26;;;;;;;15.47;13.90;;;;;21.00;98700.00;;;;2093219;28;20261;-54
2021/10/03 01:47:26;;;;;;;14.83;13.43;;;;;21.00;98711.00;;;;2092740;28;20216;-55
2021/10/03 01:48:26;;;;;;;15.83;14.40;;;;;21.10;98721.00;;;;2093078;28;20215;-54
2021/10/03 01:49:28;;;;;;;14.93;13.53;;;;;21.00;98702.00;;;;2092851;28;20208;-55
2021/10/03 01:50:29;;;;;;;15.85;14.35;;;;;21.00;98712.00;;;;2092896;28;20308;-55
2021/10/03 01:51:29;;;;;;;15.63;14.20;;;;;21.00;98710.00;;;;2090285;28;20216;-54
2021/10/03 01:52:30;;;;;;;14.63;13.20;;;;;21.00;98710.00;;;;2089028;28;20213;-54
2021/10/03 01:53:42;;;;;;;15.20;13.70;;;;;21.00;98713.00;;;;2095375;28;20215;-55
2021/10/03 01:54:42;;;;;;;16.42;14.73;;;;;21.00;98721.00;;;;2093727;28;20238;-55
2021/10/03 01:55:44;;;;;;;13.33;12.03;;;;;21.00;98706.00;;;;2089201;28;20217;-55
2021/10/03 01:56:44;;;;;;;13.43;12.15;;;;;21.00;98711.00;;;;2091238;28;20222;-55
2021/10/03 01:57:44;;;;;;;14.43;13.07;;;;;21.00;98718.00;;;;2095432;28;20688;-55
2021/10/03 01:58:47;;;;;;;16.53;14.83;;;;;21.00;98710.00;;;;2093788;28;20216;-55
2021/10/03 01:59:47;;;;;;;15.20;13.63;;;;;21.00;98721.00;;;;2088129;28;20706;-55
2021/10/03 02:00:50;;;;;;;15.43;13.90;;;;;21.00;98707.00;;;;2092025;28;20308;-55
2021/10/03 02:01:50;;;;;;;13.82;12.23;;;;;21.00;98715.00;;;;2091847;28;20231;-54
2021/10/03 02:03:01;;;;;;;13.20;11.90;;;;;21.00;98711.00;;;;2088839;28;20251;-55
2021/10/03 02:04:05;;;;;;;13.88;11.88;;;;;21.00;98716.00;;;;2095875;28;20212;-55
2021/10/03 02:05:06;;;;;;;12.50;11.30;;;;;21.00;98709.00;;;;2092952;28;20251;-54
2021/10/03 02:06:06;;;;;;;13.40;12.10;;;;;21.00;98717.00;;;;2096011;28;20344;-55
2021/10/03 02:07:06;;;;;;;14.97;13.57;;;;;21.00;98711.00;;;;2090968;28;20704;-54
2021/10/03 02:08:07;;;;;;;11.80;10.60;;;;;21.00;98701.00;;;;2093592;28;20230;-55
2021/10/03 02:09:09;;;;;;;11.77;10.70;;;;;21.00;98708.00;;;;2092616;28;20217;-56
2021/10/03 02:10:09;;;;;;;12.93;11.63;;;;;21.00;98689.00;;;;2092821;28;20223;-55
2021/10/03 02:11:09;;;;;;;11.97;10.77;;;;;21.00;98695.00;;;;2097021;28;20766;-54
2021/10/03 02:12:10;;;;;;;11.90;10.70;;;;;21.00;98703.00;;;;2096718;28;20215;-54
2021/10/03 02:13:10;;;;;;;12.90;11.53;;;;;21.00;98688.00;;;;2083750;28;20212;-53
2021/10/03 02:14:11;;;;;;;13.90;12.43;;;;;21.00;98683.00;;;;2083655;28;20258;-54
2021/10/03 02:15:11;;;;;;;11.93;10.73;;;;;21.00;98689.00;;;;2092728;28;20208;-55
2021/10/03 02:16:12;;;;;;;12.73;11.43;;;;;21.00;98689.00;;;;2091829;28;20216;-58
2021/10/03 02:17:12;;;;;;;11.70;10.60;;;;;21.00;98691.00;;;;2088494;28;20217;-56
2021/10/03 02:18:13;;;;;;;13.30;12.00;;;;;21.00;98680.00;;;;2092542;28;20236;-55
2021/10/03 02:19:14;;;;;;;13.02;11.73;;;;;21.00;98681.00;;;;2092346;28;20217;-55
2021/10/03 02:20:15;;;;;;;13.33;12.07;;;;;21.00;98676.00;;;;2088535;28;20324;-55
2021/10/03 02:21:16;;;;;;;12.82;11.63;;;;;21.00;98685.00;;;;2095800;28;20204;-55
2021/10/03 02:22:18;;;;;;;12.53;11.33;;;;;21.00;98665.00;;;;2091980;28;20704;-54
2021/10/03 02:23:19;;;;;;;12.52;11.32;;;;;21.00;98681.00;;;;2080488;28;20898;-55
2021/10/03 02:24:19;;;;;;;11.33;10.23;;;;;21.00;98681.00;;;;2085628;28;20247;-54
2021/10/03 02:25:19;;;;;;;12.50;11.30;;;;;21.00;98678.00;;;;2091417;28;20656;-55
2021/10/03 02:26:20;;;;;;;12.93;11.63;;;;;21.00;98677.00;;;;2091719;28;20304;-55
2021/10/03 02:27:20;;;;;;;10.30;9.40;;;;;21.00;98666.00;;;;2091717;28;20208;-55
2021/10/03 02:28:21;;;;;;;12.90;11.60;;;;;21.00;98673.00;;;;2092936;28;20213;-55
2021/10/03 02:29:22;;;;;;;12.40;11.25;;;;;21.00;98671.00;;;;2092319;28;20209;-55
2021/10/03 02:30:22;;;;;;;11.70;10.60;;;;;21.00;98676.00;;;;2092010;28;20284;-55
2021/10/03 02:31:23;;;;;;;12.17;10.97;;;;;21.00;98672.00;;;;2084867;28;20204;-55
2021/10/03 02:32:23;;;;;;;10.87;9.77;;;;;21.00;98673.00;;;;2101554;28;20196;-54
2021/10/03 02:33:23;;;;;;;9.87;8.97;;;;;21.00;98676.00;;;;2095094;28;20289;-54
2021/10/03 02:34:26;;;;;;;11.60;10.43;;;;;21.00;98661.00;;;;2092287;28;20283;-55
2021/10/03 02:35:27;;;;;;;10.70;9.70;;;;;21.00;98674.00;;;;2088527;28;20592;-55
2021/10/03 02:36:27;;;;;;;11.80;10.70;;;;;21.00;98672.00;;;;2092449;28;20221;-55
2021/10/03 02:37:27;;;;;;;12.03;10.80;;;;;21.00;98662.00;;;;2092238;28;20205;-55
2021/10/03 02:38:28;;;;;;;11.77;10.57;;;;;21.00;98665.00;;;;2089273;28;20204;-56
2021/10/03 02:39:28;;;;;;;11.53;10.43;;;;;21.00;98671.00;;;;2092266;28;20213;-55
2021/10/03 02:40:28;;;;;;;11.30;10.17;;;;;21.00;98657.00;;;;2092141;28;20299;-54
2021/10/03 02:41:29;;;;;;;11.60;10.50;;;;;21.00;98653.00;;;;2092601;28;20216;-53
2021/10/03 02:42:29;;;;;;;10.60;9.60;;;;;21.00;98657.00;;;;2092823;28;20213;-53
2021/10/03 02:43:32;;;;;;;11.53;10.43;;;;;21.00;98651.00;;;;2092871;28;20220;-54
2021/10/03 02:44:33;;;;;;;11.65;10.55;;;;;21.00;98650.00;;;;2092110;28;20275;-54
2021/10/03 02:45:35;;;;;;;11.53;10.40;;;;;21.00;98658.00;;;;2095423;28;20228;-53
2021/10/03 02:46:35;;;;;;;11.25;10.15;;;;;21.00;98654.00;;;;2093389;28;20290;-54
2021/10/03 02:47:35;;;;;;;10.87;9.87;;;;;21.00;98659.00;;;;2091454;28;20221;-54
2021/10/03 02:48:37;;;;;;;10.37;9.47;;;;;21.00;98658.00;;;;2092316;28;20219;-53
2021/10/03 02:49:41;;;;;;;11.55;10.45;;;;;21.00;98655.00;;;;2087761;28;20217;-54
2021/10/03 02:50:41;;;;;;;11.07;8.63;;;;;21.00;98661.00;;;;2091611;28;20216;-54
2021/10/03 02:51:42;;;;;;;10.10;8.23;;;;;21.00;98653.00;;;;2088981;28;20308;-54
2021/10/03 02:52:42;;;;;;;9.40;8.50;;;;;21.00;98647.00;;;;2088376;28;20216;-54
2021/10/03 02:53:42;;;;;;;8.87;8.07;;;;;21.00;98653.00;;;;2089147;28;20209;-56
2021/10/03 02:54:43;;;;;;;10.03;9.13;;;;;21.00;98660.00;;;;2092864;28;20223;-53
2021/10/03 02:55:43;;;;;;;9.87;8.97;;;;;21.00;98651.00;;;;2092693;28;20212;-55
2021/10/03 02:56:43;;;;;;;10.20;9.23;;;;;21.00;98667.00;;;;2094330;28;20212;-54
2021/10/03 02:57:44;;;;;;;10.07;9.17;;;;;21.00;98619.00;;;;2094798;28;20212;-55
2021/10/03 02:58:44;;;;;;;10.20;9.20;;;;;21.00;98656.00;;;;2092343;28;20307;-54
2021/10/03 02:59:44;;;;;;;9.97;9.07;;;;;21.00;98665.00;;;;2096236;28;20677;-55
2021/10/03 03:00:46;;;;;;;10.40;9.40;;;;;21.00;98663.00;;;;2092440;28;20208;-55
2021/10/03 03:01:46;;;;;;;9.15;8.25;;;;;21.00;98659.00;;;;2092626;28;20224;-55
2021/10/03 03:02:47;;;;;;;10.80;8.70;;;;;21.00;98667.00;;;;2092681;28;20220;-55
2021/10/03 03:03:47;;;;;;;8.23;7.53;;;;;21.00;98655.00;;;;2092313;28;20219;-55
2021/10/03 03:04:47;;;;;;;9.30;8.40;;;;;21.00;98663.00;;;;2094616;28;20228;-55
2021/10/03 03:05:48;;;;;;;9.87;8.97;;;;;21.00;98661.00;;;;2092101;28;20223;-53
2021/10/03 03:06:49;;;;;;;7.83;7.13;;;;;21.00;98659.00;;;;2091290;28;20208;-58
2021/10/03 03:07:49;;;;;;;9.60;8.70;;;;;21.00;98656.00;;;;2096001;28;20295;-55
2021/10/03 03:08:49;;;;;;;8.93;8.13;;;;;21.00;98660.00;;;;2092060;28;20197;-55
2021/10/03 03:09:50;;;;;;;9.10;8.20;;;;;21.00;98647.00;;;;2091926;28;20209;-55
2021/10/03 03:10:50;;;;;;;9.10;8.30;;;;;21.00;98654.00;;;;2092001;28;20580;-56
2021/10/03 03:11:50;;;;;;;7.30;6.70;;;;;21.00;98659.00;;;;2092198;28;20208;-55
2021/10/03 03:12:51;;;;;;;8.20;7.40;;;;;21.00;98660.00;;;;2091964;28;20254;-55
2021/10/03 03:13:51;;;;;;;7.47;6.87;;;;;21.00;98656.00;;;;2094217;28;20677;-55
2021/10/03 03:14:51;;;;;;;9.87;8.97;;;;;21.00;98656.00;;;;2089989;28;20205;-53
2021/10/03 03:15:52;;;;;;;8.17;7.37;;;;;21.00;98646.00;;;;2091986;28;20277;-54
2021/10/03 03:16:52;;;;;;;8.70;7.90;;;;;21.00;98658.00;;;;2092052;28;20208;-54
2021/10/03 03:17:53;;;;;;;8.23;7.50;;;;;21.00;98650.00;;;;2089289;28;20204;-55
2021/10/03 03:18:53;;;;;;;7.83;7.13;;;;;21.00;98656.00;;;;2088127;28;20228;-53
2021/10/03 03:19:53;;;;;;;7.70;6.97;;;;;21.00;98656.00;;;;2092318;28;20216;-55
2021/10/03 03:20:54;;;;;;;7.70;6.90;;;;;21.00;98656.00;;;;2092025;28;20331;-55
2021/10/03 03:21:54;;;;;;;8.63;7.83;;;;;21.00;98656.00;;;;2092026;28;20227;-54
2021/10/03 03:22:54;;;;;;;8.80;8.00;;;;;21.00;98660.00;;;;2090281;28;20205;-54
2021/10/03 03:23:55;;;;;;;8.10;7.40;;;;;21.00;98653.00;;;;2088041;28;20208;-54
2021/10/03 03:24:55;;;;;;;8.00;7.17;;;;;21.00;98657.00;;;;2088061;28;20578;-54
2021/10/03 03:25:55;;;;;;;8.07;7.30;;;;;21.00;98654.00;;;;2091925;28;20651;-55
2021/10/03 03:26:56;;;;;;;7.93;6.43;;;;;21.00;98652.00;;;;2095094;28;20246;-53
2021/10/03 03:27:56;;;;;;;8.37;7.57;;;;;21.00;98643.00;;;;2092472;28;20219;-54
2021/10/03 03:28:56;;;;;;;7.97;7.27;;;;;21.00;98646.00;;;;2095016;28;20259;-55
2021/10/03 03:29:57;;;;;;;7.40;6.70;;;;;21.00;98648.00;;;;2091741;28;20517;-56
2021/10/03 03:30:57;;;;;;;8.07;7.30;;;;;21.00;98646.00;;;;2096005;28;20212;-55
2021/10/03 03:31:58;;;;;;;8.00;7.30;;;;;21.00;98654.00;;;;2096290;28;20587;-54
2021/10/03 03:32:58;;;;;;;7.00;6.40;;;;;21.00;98651.00;;;;2096228;28;20584;-55
2021/10/03 03:33:59;;;;;;;7.27;6.57;;;;;21.00;98652.00;;;;2096408;28;20230;-55
2021/10/03 03:34:59;;;;;;;7.53;6.90;;;;;21.00;98662.00;;;;2092492;28;20697;-54
2021/10/03 03:36:00;;;;;;;7.50;6.80;;;;;21.00;98659.00;;;;2092163;28;20258;-55
2021/10/03 03:37:00;;;;;;;7.33;6.73;;;;;21.00;98644.00;;;;2089225;28;20204;-55
2021/10/03 03:38:00;;;;;;;7.90;6.63;;;;;21.00;98646.00;;;;2094993;28;20208;-54
2021/10/03 03:39:01;;;;;;;7.00;6.30;;;;;21.00;98652.00;;;;2089010;28;20686;-54
2021/10/03 03:40:02;;;;;;;7.80;7.10;;;;;21.00;98645.00;;;;2095473;28;20226;-55
2021/10/03 03:41:04;;;;;;;7.57;6.88;;;;;21.00;98636.00;;;;2086792;28;20208;-54
2021/10/03 03:42:04;;;;;;;7.75;7.05;;;;;21.00;98646.00;;;;2091158;28;20209;-55
2021/10/03 03:43:05;;;;;;;6.70;6.10;;;;;21.00;98643.00;;;;2091715;28;20208;-55
2021/10/03 03:44:05;;;;;;;6.60;6.00;;;;;21.00;98650.00;;;;2091700;28;20231;-55
2021/10/03 03:45:06;;;;;;;7.10;6.40;;;;;21.00;98639.00;;;;2092554;28;20265;-54
2021/10/03 03:46:06;;;;;;;7.70;7.00;;;;;21.00;98641.00;;;;2091070;28;20212;-54
2021/10/03 03:47:07;;;;;;;7.00;6.37;;;;;21.00;98642.00;;;;2089594;28;20220;-55
2021/10/03 03:48:07;;;;;;;6.77;6.17;;;;;21.00;98636.00;;;;2092397;28;20701;-54
2021/10/03 03:49:07;;;;;;;6.67;6.07;;;;;21.00;98642.00;;;;2095825;28;20216;-55
2021/10/03 03:50:11;;;;;;;6.00;5.40;;;;;21.00;98637.00;;;;2092281;28;20981;-55
2021/10/03 03:51:12;;;;;;;7.20;6.50;;;;;21.00;98641.00;;;;2092098;28;20207;-55
2021/10/03 03:52:12;;;;;;;7.13;6.50;;;;;21.00;98642.00;;;;2091291;28;20745;-54
2021/10/03 03:53:13;;;;;;;6.17;5.60;;;;;21.00;98638.00;;;;2091445;28;20650;-55
2021/10/03 03:54:13;;;;;;;6.47;5.87;;;;;21.00;98641.00;;;;2091600;28;20211;-55
2021/10/03 03:55:13;;;;;;;7.70;7.00;;;;;21.00;98644.00;;;;2094114;28;20222;-55
2021/10/03 03:56:14;;;;;;;8.37;6.63;;;;;21.00;98644.00;;;;2089379;28;20208;-54
2021/10/03 03:57:14;;;;;;;6.97;6.33;;;;;21.00;98634.00;;;;2091712;28;20220;-54
2021/10/03 03:58:14;;;;;;;6.80;6.20;;;;;21.00;98634.00;;;;2091796;28;22583;-55
2021/10/03 03:59:15;;;;;;;6.97;6.30;;;;;21.00;98630.00;;;;2095257;28;20220;-55
2021/10/03 04:00:15;;;;;;;5.93;5.43;;;;;21.00;98625.00;;;;2095063;28;20219;-54
2021/10/03 04:01:15;;;;;;;6.27;5.57;;;;;21.00;98633.00;;;;2091016;28;20216;-55
2021/10/03 04:02:16;;;;;;;6.13;5.63;;;;;21.00;98629.00;;;;2087608;28;20225;-53
2021/10/03 04:03:16;;;;;;;6.10;5.57;;;;;21.00;98634.00;;;;2087231;28;20213;-55
2021/10/03 04:04:17;;;;;;;6.30;5.77;;;;;21.00;98634.00;;;;2093106;28;20212;-55
2021/10/03 04:05:17;;;;;;;6.33;5.10;;;;;21.00;98637.00;;;;2088964;28;20295;-55
2021/10/03 04:06:17;;;;;;;6.00;5.50;;;;;21.00;98630.00;;;;2090044;28;20212;-55
2021/10/03 04:07:20;;;;;;;8.03;5.93;;;;;21.00;98631.00;;;;2092121;28;20298;-55
2021/10/03 04:08:23;;;;;;;6.10;5.50;;;;;21.00;98631.00;;;;2086461;28;20267;-55
2021/10/03 04:09:23;;;;;;;6.32;5.75;;;;;21.00;98630.00;;;;2094111;28;20743;-55
2021/10/03 04:10:23;;;;;;;6.17;5.57;;;;;21.00;98625.00;;;;2087232;28;20224;-55
2021/10/03 04:11:24;;;;;;;5.90;5.40;;;;;21.00;98630.00;;;;2092258;28;20223;-55
2021/10/03 04:12:24;;;;;;;5.80;5.20;;;;;21.00;98631.00;;;;2091748;28;20220;-55
2021/10/03 04:13:24;;;;;;;5.20;4.80;;;;;21.00;98626.00;;;;2092717;28;20224;-55
2021/10/03 04:14:25;;;;;;;6.10;5.50;;;;;21.00;98629.00;;;;2090287;28;20625;-53
2021/10/03 04:15:25;;;;;;;6.33;5.73;;;;;21.00;98627.00;;;;2095406;28;20231;-55
2021/10/03 04:16:26;;;;;;;6.40;5.80;;;;;21.00;98626.00;;;;2091679;28;20212;-55
2021/10/03 04:17:26;;;;;;;6.83;6.23;;;;;21.00;98628.00;;;;2091630;28;20599;-55
2021/10/03 04:18:26;;;;;;;5.27;4.77;;;;;21.00;98632.00;;;;2095379;28;20212;-55
2021/10/03 04:19:27;;;;;;;5.57;5.07;;;;;21.00;98626.00;;;;2091053;28;20231;-55
2021/10/03 04:20:27;;;;;;;6.10;5.53;;;;;21.00;98624.00;;;;2091556;28;20216;-55
2021/10/03 04:21:28;;;;;;;6.03;5.40;;;;;21.00;98628.00;;;;2091380;28;20217;-55
2021/10/03 04:22:28;;;;;;;6.20;5.60;;;;;21.00;98636.00;;;;2092866;28;20220;-55
2021/10/03 04:23:28;;;;;;;6.23;5.73;;;;;21.00;98636.00;;;;2091147;28;20718;-54
2021/10/03 04:24:29;;;;;;;5.70;5.20;;;;;21.00;98634.00;;;;2094329;28;20235;-55
2021/10/03 04:25:29;;;;;;;5.90;5.40;;;;;21.00;98636.00;;;;2080381;28;20244;-57
2021/10/03 04:26:29;;;;;;;5.23;4.73;;;;;21.00;98627.00;;;;2094101;28;20581;-57
2021/10/03 04:27:30;;;;;;;6.90;5.00;;;;;21.00;98637.00;;;;2091138;28;20216;-55
2021/10/03 04:28:30;;;;;;;5.30;4.80;;;;;21.00;98634.00;;;;2091062;28;20212;-56
2021/10/03 04:29:30;;;;;;;6.13;5.53;;;;;21.00;98633.00;;;;2086475;28;20295;-56
2021/10/03 04:30:31;;;;;;;5.30;4.83;;;;;21.00;98638.00;;;;2089886;28;20205;-57
2021/10/03 04:31:31;;;;;;;6.10;5.50;;;;;21.00;98637.00;;;;2091902;28;20677;-55
2021/10/03 04:32:32;;;;;;;5.27;4.77;;;;;21.00;98648.00;;;;2095927;28;20711;-55
2021/10/03 04:33:32;;;;;;;5.13;4.70;;;;;21.00;98638.00;;;;2090870;28;20592;-55
2021/10/03 04:34:32;;;;;;;5.20;4.80;;;;;21.00;98641.00;;;;2095885;28;20644;-55
2021/10/03 04:35:33;;;;;;;5.60;5.10;;;;;21.00;98631.00;;;;2091177;28;20278;-55
2021/10/03 04:36:33;;;;;;;5.37;4.90;;;;;21.00;98638.00;;;;2091256;28;20247;-56
2021/10/03 04:37:34;;;;;;;5.27;4.80;;;;;21.00;98627.00;;;;2091914;28;20235;-55
2021/10/03 04:38:34;;;;;;;6.83;5.50;;;;;21.00;98631.00;;;;2091253;28;20308;-55
2021/10/03 04:39:36;;;;;;;5.60;5.10;;;;;21.00;98635.00;;;;2093556;28;20212;-56
2021/10/03 04:40:36;;;;;;;6.10;5.50;;;;;21.00;98641.00;;;;2088635;28;20290;-56
2021/10/03 04:41:37;;;;;;;4.83;4.43;;;;;21.00;98636.00;;;;2087057;28;20277;-55
2021/10/03 04:42:37;;;;;;;5.53;5.03;;;;;21.00;98629.00;;;;2091396;28;20208;-55
2021/10/03 04:43:37;;;;;;;5.27;4.77;;;;;21.00;98631.00;;;;2095591;28;20212;-56
2021/10/03 04:44:38;;;;;;;5.33;4.83;;;;;21.00;98633.00;;;;2090683;28;20319;-56
2021/10/03 04:45:41;;;;;;;5.10;4.70;;;;;21.00;98625.00;;;;2088806;28;20717;-56
2021/10/03 04:46:41;;;;;;;5.45;4.95;;;;;21.00;98626.00;;;;2091595;28;20228;-55
2021/10/03 04:47:43;;;;;;;4.90;4.50;;;;;21.00;98626.00;;;;2092859;28;20217;-55
2021/10/03 04:48:43;;;;;;;5.75;4.75;;;;;21.00;98623.00;;;;2094334;28;20219;-55
2021/10/03 04:49:43;;;;;;;5.30;4.83;;;;;21.00;98622.00;;;;2091210;28;20201;-56
2021/10/03 04:50:44;;;;;;;4.90;4.50;;;;;21.00;98621.00;;;;2095530;28;20625;-55
2021/10/03 04:51:44;;;;;;;5.13;4.53;;;;;21.00;98622.00;;;;2094814;28;20303;-55
2021/10/03 04:52:45;;;;;;;5.40;4.43;;;;;21.00;98623.00;;;;2087339;28;20299;-55
2021/10/03 04:53:45;;;;;;;5.63;5.10;;;;;21.00;98621.00;;;;2087201;28;20232;-55
2021/10/03 04:54:45;;;;;;;5.20;4.70;;;;;21.00;98622.00;;;;2091281;28;20308;-55
2021/10/03 04:55:46;;;;;;;5.20;4.70;;;;;21.00;98619.00;;;;2094631;28;20254;-55
2021/10/03 04:56:46;;;;;;;5.73;4.90;;;;;20.90;98617.00;;;;2097223;28;20215;-55
2021/10/03 04:57:48;;;;;;;5.20;4.60;;;;;21.00;98611.00;;;;2093950;28;20212;-56
2021/10/03 04:58:48;;;;;;;5.15;4.72;;;;;21.00;98623.00;;;;2088521;28;20213;-55